Thursday, February 22, 2018, 5:08 PM GMT
Back to Local

CYPD, Port Hawkesbury

Location: , , Canada Lat: 45.667
Local Time: 5:08 PM GMT (17:08 GMT) Lon: -61.383
Time Zone: GMT Elev: 374 ft

Show me the last for .
Show Decoded

2018-02-22 16:00 METAR CYPD 221600Z AUTO 32015G29KT 9SM -SN OVC022 M07/M12 A3047 RMK SLP325 =
2018-02-22 15:00 METAR CYPD 221500Z AUTO 32015G25KT 9SM -SN OVC022 M07/M12 A3045 RMK SLP319 =
2018-02-22 14:00 METAR CYPD 221400Z AUTO 34016G30KT 290V010 9SM -SN OVC020 M07/M12 A3044 RMK
                 SLP315 =
2018-02-22 13:00 METAR CYPD 221300Z AUTO 33010G31KT 290V360 9SM -SN OVC020 M07/M11 A3043 RMK
                 SLP310 =
2018-02-22 12:00 METAR CYPD 221200Z AUTO 31016G27KT 9SM -SN OVC018 M07/M11 A3041 RMK SLP304 =
2018-02-22 11:00 METAR CYPD 221100Z AUTO 32013G27KT 9SM -SN OVC018 M06/M10 A3036 RMK SLP288 =
2018-02-22 10:49 METAR CYPD 221049Z AUTO 33016G22KT 300V360 9SM -SN OVC018 M06/M10 A3035 RMK
                 SLP284 =
2018-02-22 10:00 METAR CYPD 221000Z AUTO 32013G22KT 280V360 9SM OVC020 M05/M09 A3032 RMK SLP275 =
2018-02-22 09:00 METAR CYPD 220900Z AUTO 31012G29KT 290V360 9SM OVC024 M03/M07 A3027 RMK PRESRR
                 SLP255 =
2018-02-22 08:00 METAR CYPD 220800Z AUTO 33011G27KT 270V350 9SM BKN024 M01/M06 A3021 RMK PRESRR
                 SLP236 =
2018-02-22 07:00 METAR CYPD 220700Z AUTO 30018G37KT 9SM CLR M00/M06 A3014 RMK SLP213 =
2018-02-22 06:00 METAR CYPD 220600Z AUTO 31019G31KT 9SM CLR 01/M04 A3009 RMK SLP195 =
2018-02-22 05:00 METAR CYPD 220500Z AUTO 30021G35KT 9SM OVC038 03/00 A3006 RMK SLP185 =
2018-02-22 04:10 METAR CYPD 220410Z AUTO 31019G31KT 9SM SCT003 SCT015 SCT022 OVC027 05/04 A3000
                 RMK SLP165 =
2018-02-22 04:09 METAR CYPD 220409Z AUTO 31016G33KT 9SM SCT003 SCT015 BKN022 OVC027 05/04 A3000
                 RMK SLP164 =
2018-02-22 04:05 METAR CYPD 220405Z AUTO 31020G33KT 9SM -RA SCT003 SCT015 BKN022 OVC027 05/04
                 A2999 RMK SLP162 =
2018-02-22 04:03 METAR CYPD 220403Z AUTO 31017G33KT 6SM -RA BR BKN003 BKN015 BKN022 OVC027 05/04
                 A3000 RMK PRESRR SLP164 =
2018-02-22 04:00 METAR CYPD 220400Z AUTO 31020G35KT 4SM -RA BR BKN003 BKN015 BKN022 OVC027 05/05
                 A3000 RMK PRESRR SLP164 =
2018-02-22 03:59 METAR CYPD 220359Z AUTO 31020G35KT 3SM -RA BR BKN003 BKN015 OVC022 05/05 A3000
                 RMK PRESRR SLP164 =

Support USWX by starting your Amazon purchase here.